M I D A S
Marine Information and Data Acquisition System
Tripno 1701 of the Zeeleeuw from 2009-05-28 06:58:06 to 2009-05-28 15:08:03
Back to CruiseResearch ActivitiesStationsMapUnderway DataData graphs

EquipmentUnitsComment
TimeDGPSUTC
LatitudeDGPSDM.mWGS84
LongitudeDGPSDM.mWGS84
HeadingGyrodeg 
SOGDGPSknotsSpeed over ground
COGDGPSdegCourse over ground
DepthEcho soundermeters200 kHz
Missing or incorrect values are displayed as -999
Navigation data collected by the RV Zeeleeuw from 2009-05-28 07:10:27 to 2009-05-28 15:17:22
Time Latitude Longitude Heading SOG COG Depth
2009-05-28 07:11:36 51°13.679 2°55.905 112.4 2.8 296 -999
2009-05-28 07:12:36 51°13.696 2°55.827 98.4 3.2 283 -999
2009-05-28 07:13:36 51°13.698 2°55.755 77.5 2.1 267 12.5
2009-05-28 07:14:34 51°13.706 2°55.745 37.5 0.9 18 12.1
2009-05-28 07:15:32 51°13.703 2°55.742 9.8 1 196 5.9
2009-05-28 07:16:34 51°13.72 2°55.727 336.1 3.4 333 12.1
2009-05-28 07:17:32 51°13.794 2°55.66 335.8 6.5 334 10.1
2009-05-28 07:18:32 51°13.901 2°55.582 338.2 7.4 337 10.3
2009-05-28 07:19:32 51°14.017 2°55.504 337.6 7.5 336 10.3
2009-05-28 07:20:32 51°14.137 2°55.413 336.3 8.5 333 10.1
2009-05-28 07:21:32 51°14.258 2°55.278 315.5 9.2 313 10.2
2009-05-28 07:22:32 51°14.366 2°55.087 312.9 10.1 311 10.2
2009-05-28 07:23:32 51°14.478 2°54.852 313.6 11.8 307 10.2
2009-05-28 07:24:32 51°14.613 2°54.62 322.6 12 316 9.7
2009-05-28 07:25:32 51°14.765 2°54.423 327.6 11.8 323 9.4
2009-05-28 07:26:32 51°14.925 2°54.243 331.4 11.7 327 8.5
2009-05-28 07:27:32 51°15.087 2°54.077 332.2 11.7 327 8.6
2009-05-28 07:28:32 51°15.254 2°53.919 335 11.6 330 8.8
2009-05-28 07:29:32 51°15.423 2°53.769 336.1 11.6 331 9.4
2009-05-28 07:30:32 51°15.595 2°53.627 338.3 11.7 334 10.7
2009-05-28 07:31:32 51°15.768 2°53.484 339 11.8 332 11.4
2009-05-28 07:32:32 51°15.942 2°53.338 337.6 11.9 332 11.2
2009-05-28 07:33:32 51°16.117 2°53.191 338.3 11.8 333 11.5
2009-05-28 07:34:32 51°16.291 2°53.042 337.6 11.8 332 11.4
2009-05-28 07:35:32 51°16.464 2°52.893 336.5 11.8 331 11.1
2009-05-28 07:36:32 51°16.638 2°52.747 336.9 11.7 332 10.7
2009-05-28 07:37:32 51°16.814 2°52.62 344.1 11.7 339 9.3
2009-05-28 07:38:32 51°17.001 2°52.555 358.4 11.5 354 9.1
2009-05-28 07:39:32 51°17.192 2°52.535 1.8 11.5 358 9.4
2009-05-28 07:40:32 51°17.383 2°52.515 0.7 11.4 356 9.7
2009-05-28 07:41:32 51°17.573 2°52.491 1 11.5 357 10
2009-05-28 07:42:32 51°17.763 2°52.474 3 11.3 -999 9.6
2009-05-28 07:43:32 51°17.954 2°52.462 4.2 11.4 3 9.9
2009-05-28 07:44:32 51°18.14 2°52.503 16.4 11.3 12 10.4
2009-05-28 07:45:32 51°18.323 2°52.566 20.5 11.2 16 10.5
2009-05-28 07:46:32 51°18.503 2°52.648 22.3 11.2 16 10.6
2009-05-28 07:47:32 51°18.683 2°52.73 21.2 11.4 16 10.9
2009-05-28 07:48:32 51°18.865 2°52.807 20.4 11.4 12 11.3
2009-05-28 07:49:32 51°19.047 2°52.883 21 11.2 15 11.7
2009-05-28 07:50:32 51°19.229 2°52.957 21 11.3 17 12.4
2009-05-28 07:51:32 51°19.412 2°53.031 21.5 11.4 15 13
2009-05-28 07:52:32 51°19.596 2°53.105 19.3 11.3 17 13.8
2009-05-28 07:53:32 51°19.776 2°53.192 24 11.3 19 14.2
2009-05-28 07:54:32 51°19.951 2°53.296 25.6 11.2 19 15.1
2009-05-28 07:55:32 51°20.124 2°53.401 25.9 11.2 21 15.1
2009-05-28 07:56:32 51°20.297 2°53.505 27.1 11 19 15.4
2009-05-28 07:57:32 51°20.467 2°53.618 26.9 11.2 21 15.5
2009-05-28 07:58:32 51°20.638 2°53.728 26.6 11 23 15.5
2009-05-28 07:59:32 51°20.81 2°53.834 24.9 11.1 23 15.9
2009-05-28 08:00:32 51°20.983 2°53.936 24.4 11.1 20 15.9
2009-05-28 08:01:32 51°21.155 2°54.044 26 11.1 21 15.8
2009-05-28 08:02:32 51°21.328 2°54.147 24.8 11.1 23 16.2
2009-05-28 08:03:32 51°21.493 2°54.27 34.9 11 28 16.1
2009-05-28 08:04:32 51°21.649 2°54.421 37.2 11 26 16.2
2009-05-28 08:05:32 51°21.786 2°54.608 51 10.8 46 16.4
2009-05-28 08:06:32 51°21.904 2°54.828 53.4 11 50 16.4
2009-05-28 08:07:32 51°22.014 2°55.059 57.6 10.8 55 16.7
2009-05-28 08:08:32 51°22.099 2°55.31 67.2 10.7 64 17.2
2009-05-28 08:09:32 51°22.176 2°55.568 66.9 10.8 62 17.2
2009-05-28 08:10:33 51°22.256 2°55.828 66.5 10.7 60 17.4
2009-05-28 08:11:32 51°22.335 2°56.078 65.6 10.8 62 17.1
2009-05-28 08:12:32 51°22.417 2°56.328 65.6 10.6 61 17.3
2009-05-28 08:13:32 51°22.5 2°56.576 66.4 10.8 61 17.3
2009-05-28 08:14:32 51°22.618 2°56.785 40.8 10.6 35 17.2
2009-05-28 08:15:32 51°22.795 2°56.836 5.6 11.4 353 17.4
2009-05-28 08:16:32 51°22.985 2°56.796 359.8 11.5 354 17.1
2009-05-28 08:17:32 51°23.175 2°56.753 1.6 11.5 356 16.9
2009-05-28 08:18:32 51°23.367 2°56.73 6.3 11.6 357 17.4
2009-05-28 08:19:32 51°23.559 2°56.739 10.2 11.5 3 17.2
2009-05-28 08:20:32 51°23.75 2°56.755 8.6 11.6 358 16.5
2009-05-28 08:21:32 51°23.94 2°56.771 9.2 11.4 4 13.6
2009-05-28 08:22:32 51°24.129 2°56.79 10.7 11.5 3 13.4
2009-05-28 08:23:32 51°24.32 2°56.809 10.2 11.4 3 14.4
2009-05-28 08:24:33 51°24.513 2°56.828 10.6 11.5 3 18.3
2009-05-28 08:25:32 51°24.702 2°56.848 10.7 11.6 4 20.1
2009-05-28 08:26:32 51°24.895 2°56.868 9.8 11.5 3 22.2
2009-05-28 08:27:32 51°25.086 2°56.891 9.6 11.5 4 23.7
2009-05-28 08:28:32 51°25.278 2°56.912 9.5 11.6 2 23.7
2009-05-28 08:29:32 51°25.47 2°56.933 10.2 11.5 2 22.4
2009-05-28 08:30:32 51°25.66 2°56.954 11 11.5 3 19.4
2009-05-28 08:31:32 51°25.848 2°56.993 17.8 11.3 13 16.5
2009-05-28 08:32:32 51°26.031 2°57.066 21.3 11.4 12 15.6
2009-05-28 08:33:32 51°26.214 2°57.143 20.2 11.6 12 16.4
2009-05-28 08:34:32 51°26.397 2°57.216 20.6 11.5 12 15.2
2009-05-28 08:35:32 51°26.581 2°57.296 21.5 11.4 14 16.7
2009-05-28 08:36:32 51°26.764 2°57.37 20.3 11.3 10 16.5
2009-05-28 08:37:32 51°26.947 2°57.442 19.2 11.3 9 17.9
2009-05-28 08:38:32 51°27.129 2°57.515 19.4 11.4 8 19.3
2009-05-28 08:39:32 51°27.311 2°57.59 20.9 11.4 15 22.1
2009-05-28 08:40:33 51°27.495 2°57.67 21 11.3 14 24.5
2009-05-28 08:41:32 51°27.675 2°57.745 20.1 11.4 16 25.5
2009-05-28 08:42:32 51°27.861 2°57.817 16.1 11.5 9 26.4
2009-05-28 08:43:32 51°28.052 2°57.849 8.2 11.6 2 28.6
2009-05-28 08:44:32 51°28.247 2°57.854 2.7 11.7 356 28.8
2009-05-28 08:45:32 51°28.441 2°57.821 358.6 11.8 352 28.8
2009-05-28 08:46:33 51°28.632 2°57.773 356.3 11.4 348 28.5
2009-05-28 08:47:33 51°28.82 2°57.708 354.4 11.6 351 27.7
2009-05-28 08:48:32 51°29.005 2°57.646 355 11.4 353 25.1
2009-05-28 08:49:33 51°29.195 2°57.575 350.4 11.7 341 22.5
2009-05-28 08:50:32 51°29.373 2°57.47 342.5 11.7 336 22.8
2009-05-28 08:51:32 51°29.552 2°57.345 342.7 11.7 337 23.6
2009-05-28 08:52:32 51°29.733 2°57.221 342.6 11.8 338 25.8
2009-05-28 08:53:33 51°29.918 2°57.099 342.5 11.7 338 25.9
2009-05-28 08:54:32 51°30.098 2°56.982 342.3 11.8 338 26.9
2009-05-28 08:55:32 51°30.28 2°56.866 342.9 11.7 338 29.3
2009-05-28 08:56:32 51°30.461 2°56.746 343.4 11.7 338 29.5
2009-05-28 08:57:32 51°30.641 2°56.625 343.4 11.7 339 30
2009-05-28 08:58:32 51°30.821 2°56.502 343.5 11.5 337 31.5
2009-05-28 08:59:32 51°30.996 2°56.373 343 11.6 334 31.5
2009-05-28 09:00:32 51°31.172 2°56.248 342.8 11.5 335 30.2
2009-05-28 09:01:32 51°31.345 2°56.121 343.5 11.5 336 18.7
2009-05-28 09:02:32 51°31.517 2°56 342.4 11.2 336 18.1
2009-05-28 09:03:33 51°31.688 2°55.865 332.3 11.2 327 16.4
2009-05-28 09:04:32 51°31.779 2°55.607 295.3 11.9 288 18.5
2009-05-28 09:05:33 51°31.827 2°55.309 288.7 9.9 282 19.7
2009-05-28 09:06:32 51°31.862 2°55.076 289.4 8.9 283 19.3
2009-05-28 09:07:32 51°31.888 2°54.844 279.8 8.9 276 19.7
2009-05-28 09:08:32 51°31.892 2°54.607 275.1 8.9 270 20.9
2009-05-28 09:09:32 51°31.867 2°54.367 257.5 9.7 250 17.3
2009-05-28 09:10:32 51°31.789 2°54.118 240.8 11.3 239 18.8
2009-05-28 09:11:32 51°31.689 2°53.837 244 12.3 242 17.4
2009-05-28 09:12:32 51°31.597 2°53.542 245.7 12.4 243 20.3
2009-05-28 09:13:32 51°31.5 2°53.249 243.9 12.4 239 20.2
2009-05-28 09:14:32 51°31.396 2°52.964 241.8 12.4 239 19
2009-05-28 09:15:32 51°31.295 2°52.676 243.8 12.4 241 21.3
2009-05-28 09:16:33 51°31.194 2°52.382 243.6 12.4 240 20.5
2009-05-28 09:17:32 51°31.092 2°52.099 242.6 12.4 242 20
2009-05-28 09:18:32 51°30.988 2°51.813 242.7 12.4 237 19.8
2009-05-28 09:19:33 51°30.882 2°51.52 243.8 12.5 242 19.3
2009-05-28 09:20:32 51°30.781 2°51.233 244.2 12.6 242 20.7
2009-05-28 09:21:32 51°30.677 2°50.942 243.6 12.6 240 20.8
2009-05-28 09:22:32 51°30.573 2°50.652 243.2 12.5 240 21.4
2009-05-28 09:23:32 51°30.464 2°50.365 241.9 12.7 238 21.3
2009-05-28 09:24:32 51°30.358 2°50.073 244.7 12.7 240 22.8
2009-05-28 09:25:33 51°30.251 2°49.775 242.5 12.6 239 21
2009-05-28 09:26:33 51°30.142 2°49.484 242.1 12.8 239 20.5
2009-05-28 09:27:32 51°30.039 2°49.191 243.3 12.8 242 23.2
2009-05-28 09:28:33 51°29.929 2°48.889 242.5 12.9 239 19
2009-05-28 09:29:32 51°29.822 2°48.596 243 12.9 239 19.1
2009-05-28 09:30:32 51°29.716 2°48.294 243.9 13.1 242 23.8
2009-05-28 09:31:33 51°29.607 2°47.987 244.2 13.1 239 23.8
2009-05-28 09:32:33 51°29.501 2°47.682 243.9 13.1 241 22.9
2009-05-28 09:33:32 51°29.392 2°47.387 241.8 13.1 239 22.5
2009-05-28 09:34:33 51°29.281 2°47.08 243.4 13.1 241 21.1
2009-05-28 09:35:33 51°29.174 2°46.776 243.1 13.1 242 26.4
2009-05-28 09:36:32 51°29.07 2°46.476 243.3 13 242 25.9
2009-05-28 09:37:33 51°28.959 2°46.168 243.2 13.1 241 23
2009-05-28 09:38:32 51°28.855 2°45.868 244.2 13.1 241 24.6
2009-05-28 09:39:32 51°28.749 2°45.561 242.5 13.1 240 26.2
2009-05-28 09:40:33 51°28.64 2°45.252 243.3 13.1 240 25.5
2009-05-28 09:41:33 51°28.536 2°44.944 243 13.1 240 27.3
2009-05-28 09:42:33 51°28.429 2°44.638 243.7 13.2 242 28.8
2009-05-28 09:43:33 51°28.323 2°44.331 244.5 13.1 242 30.1
2009-05-28 09:44:33 51°28.218 2°44.023 244.7 13.2 241 28.5
2009-05-28 09:45:32 51°28.112 2°43.721 242.3 13.2 241 29.7
2009-05-28 09:46:33 51°27.999 2°43.412 242.5 13.2 239 31.5
2009-05-28 09:47:32 51°27.89 2°43.112 242.5 13.3 240 31.5
2009-05-28 09:48:32 51°27.783 2°42.804 244 13.3 240 30.9
2009-05-28 09:49:32 51°27.673 2°42.496 243.5 13.3 242 29.8
2009-05-28 09:50:32 51°27.564 2°42.186 242.9 13.2 242 29.8
2009-05-28 09:51:32 51°27.519 2°41.852 271.5 12.8 267 31.1
2009-05-28 09:52:32 51°27.506 2°41.508 274.5 12.9 268 30.4
2009-05-28 09:53:33 51°27.491 2°41.157 272 12.9 266 30
2009-05-28 09:54:32 51°27.472 2°40.82 270.8 12.9 265 29.8
2009-05-28 09:55:33 51°27.453 2°40.472 271.5 12.9 266 31.5
2009-05-28 09:56:32 51°27.457 2°40.144 291 12.1 286 32.2
2009-05-28 09:57:33 51°27.561 2°39.884 327.5 11.1 317 31.4
2009-05-28 09:58:33 51°27.714 2°39.724 338.7 11 328 32.1
2009-05-28 09:59:32 51°27.873 2°39.585 341.5 11 332 31.8
2009-05-28 10:00:33 51°28.033 2°39.444 340.5 11 331 33
2009-05-28 10:01:32 51°28.197 2°39.324 348.5 10.9 341 33.1
2009-05-28 10:02:33 51°28.374 2°39.267 7 10.4 -999 33.1
2009-05-28 10:03:32 51°28.528 2°39.346 38.6 9.7 44 35.2
2009-05-28 10:04:33 51°28.608 2°39.585 63.4 10.2 66 31.6
2009-05-28 10:05:32 51°28.686 2°39.822 58.6 10.4 57 34.6
2009-05-28 10:06:33 51°28.766 2°40.072 61.6 10.4 66 33.8
2009-05-28 10:07:33 51°28.847 2°40.316 60.2 10.3 62 35.1
2009-05-28 10:08:32 51°28.923 2°40.559 60.6 10.4 63 35.4
2009-05-28 10:09:33 51°29.001 2°40.805 59.3 10.2 62 32.9
2009-05-28 10:10:32 51°29.079 2°41.04 59.5 10.1 62 32.6
2009-05-28 10:11:33 51°29.154 2°41.286 61.2 10.1 65 32.7
2009-05-28 10:12:33 51°29.231 2°41.527 60.8 10.1 63 31
2009-05-28 10:13:32 51°29.305 2°41.766 61.3 10.2 64 31.9
2009-05-28 10:14:32 51°29.382 2°42.009 61.2 10.3 65 29.9
2009-05-28 10:15:33 51°29.46 2°42.256 59.4 10.3 63 32.5
2009-05-28 10:16:33 51°29.539 2°42.498 60.4 10.3 61 33.8
2009-05-28 10:17:32 51°29.617 2°42.733 60.2 10.4 60 32.6
2009-05-28 10:18:33 51°29.699 2°42.979 58.2 10.3 60 30.6
2009-05-28 10:19:33 51°29.79 2°43.206 56.2 10 59 30.5
2009-05-28 10:20:33 51°29.882 2°43.432 56.2 10.2 57 30.5
2009-05-28 10:21:33 51°29.973 2°43.655 55.3 10.2 59 31
2009-05-28 10:22:32 51°30.064 2°43.877 55.7 10 55 30.7
2009-05-28 10:23:33 51°30.159 2°44.105 54.5 10.2 58 32.8
2009-05-28 10:24:32 51°30.25 2°44.328 56.5 10.2 57 31.3
2009-05-28 10:25:33 51°30.344 2°44.557 54.8 10.1 56 31.5
2009-05-28 10:26:32 51°30.434 2°44.78 55.8 10.2 55 31
2009-05-28 10:27:32 51°30.528 2°45.007 54.5 10.1 56 29.7
2009-05-28 10:28:32 51°30.621 2°45.235 55.5 10.2 56 31.8
2009-05-28 10:29:32 51°30.716 2°45.463 55.3 10.2 57 28.5
2009-05-28 10:30:32 51°30.812 2°45.688 54.6 10.2 54 32.4
2009-05-28 10:31:33 51°30.907 2°45.915 55.1 10 54 31.4
2009-05-28 10:32:33 51°31.002 2°46.136 53.9 10.1 55 32.9
2009-05-28 10:33:32 51°31.095 2°46.353 56 10 56 28
2009-05-28 10:34:33 51°31.188 2°46.58 58.7 9.9 60 27.6
2009-05-28 10:35:32 51°31.268 2°46.809 59.9 10.1 61 27.3
2009-05-28 10:36:33 51°31.358 2°47.038 56.7 9.9 58 27.8
2009-05-28 10:37:32 51°31.444 2°47.26 57.2 10 60 29.2
2009-05-28 10:38:33 51°31.53 2°47.493 57.7 10 59 29.8
2009-05-28 10:39:32 51°31.615 2°47.719 58 10.1 57 30
2009-05-28 10:40:32 51°31.704 2°47.944 56.4 10.1 59 32.6
2009-05-28 10:41:33 51°31.794 2°48.171 57 9.9 58 31.2
2009-05-28 10:42:33 51°31.881 2°48.395 56.7 9.9 62 31.8
2009-05-28 10:43:33 51°31.969 2°48.615 56.9 9.7 59 31.4
2009-05-28 10:44:32 51°32.052 2°48.831 58.4 9.8 59 30.9
2009-05-28 10:45:33 51°32.138 2°49.057 56.1 9.8 56 31.8
2009-05-28 10:46:32 51°32.223 2°49.272 57.4 9.8 58 33.3
2009-05-28 10:47:33 51°32.309 2°49.496 56.8 9.7 58 31.8
2009-05-28 10:48:33 51°32.395 2°49.717 57.7 9.7 59 31.4
2009-05-28 10:49:33 51°32.482 2°49.934 56.7 9.6 58 28.1
2009-05-28 10:50:33 51°32.567 2°50.152 58.2 9.7 60 30.6
2009-05-28 10:51:33 51°32.65 2°50.377 58.1 9.6 61 30.4
2009-05-28 10:52:32 51°32.731 2°50.599 57.9 9.8 58 32.4
2009-05-28 10:53:32 51°32.816 2°50.824 58.2 9.9 59 33.2
2009-05-28 10:54:33 51°32.902 2°51.055 58 9.9 60 32.3
2009-05-28 10:55:32 51°32.981 2°51.283 61.2 10 62 28.1
2009-05-28 10:56:32 51°33.061 2°51.517 59.4 10.1 61 31
2009-05-28 10:57:33 51°33.144 2°51.757 61 10.3 63 33.3
2009-05-28 10:58:33 51°33.224 2°51.996 60.2 10.1 63 31.5
2009-05-28 10:59:33 51°33.301 2°52.232 61.8 10 62 32.3
2009-05-28 11:00:33 51°33.378 2°52.47 60.7 9.9 62 30.1
2009-05-28 11:01:33 51°33.457 2°52.707 60.3 10 60 28.8
2009-05-28 11:02:33 51°33.537 2°52.941 60.9 10.1 62 31.6
2009-05-28 11:03:33 51°33.616 2°53.178 61.3 10.1 60 30.8
2009-05-28 11:04:33 51°33.696 2°53.418 60.1 10.1 59 30
2009-05-28 11:05:33 51°33.776 2°53.658 60.3 10.3 62 29.7
2009-05-28 11:06:33 51°33.856 2°53.896 60.7 10.2 61 29.6
2009-05-28 11:07:32 51°33.934 2°54.132 60.6 10.2 61 28.4
2009-05-28 11:08:33 51°34.016 2°54.374 58.4 10.1 60 29.6
2009-05-28 11:09:33 51°34.103 2°54.601 56.8 10 61 30.5
2009-05-28 11:10:33 51°34.191 2°54.828 56.8 10.1 57 30.1
2009-05-28 11:11:33 51°34.28 2°55.056 57.1 10.2 60 29.2
2009-05-28 11:12:33 51°34.37 2°55.282 57.4 10 59 30.9
2009-05-28 11:13:33 51°34.46 2°55.511 57.8 10.2 57 32.3
2009-05-28 11:14:33 51°34.548 2°55.741 57.3 10.1 59 30.8
2009-05-28 11:15:33 51°34.636 2°55.97 57.8 10.1 60 32.1
2009-05-28 11:16:33 51°34.723 2°56.198 56.4 10 58 31.7
2009-05-28 11:17:33 51°34.808 2°56.428 58.1 9.9 58 33.5
2009-05-28 11:18:33 51°34.895 2°56.655 57.2 10 59 33.9
2009-05-28 11:19:33 51°34.982 2°56.884 57.8 10 62 32.6
2009-05-28 11:20:33 51°35.067 2°57.113 56.8 9.9 57 33.9
2009-05-28 11:21:32 51°35.151 2°57.333 57.2 9.8 58 34.1
2009-05-28 11:22:33 51°35.236 2°57.559 56.7 9.8 57 34.8
2009-05-28 11:23:33 51°35.321 2°57.78 56.9 9.7 57 34.1
2009-05-28 11:24:33 51°35.404 2°58.001 57.2 9.7 59 32.7
2009-05-28 11:25:33 51°35.49 2°58.221 56 9.7 57 32.1
2009-05-28 11:26:32 51°35.574 2°58.437 60.6 9.8 66 35.8
2009-05-28 11:27:33 51°35.632 2°58.688 68.4 10 74 31.7
2009-05-28 11:28:33 51°35.653 2°58.948 91.4 10.4 104 30
2009-05-28 11:29:33 51°35.555 2°59.194 120.7 11.4 132 31.1
2009-05-28 11:30:32 51°35.428 2°59.415 122.4 11.4 132 29.4
2009-05-28 11:31:33 51°35.3 2°59.648 120 11.3 127 28.6
2009-05-28 11:32:33 51°35.179 2°59.884 118.1 11.5 131 29.2
2009-05-28 11:33:33 51°35.061 3°0.124 117.3 11.5 127 25.1
2009-05-28 11:34:32 51°34.945 3°0.362 119.6 11.3 125 24.2
2009-05-28 11:35:33 51°34.821 3°0.607 119 11.9 130 21.4
2009-05-28 11:36:32 51°34.699 3°0.851 119.7 12 132 18.5
2009-05-28 11:37:32 51°34.546 3°1.065 143.4 12.9 153 15.8
2009-05-28 11:38:32 51°34.331 3°1.109 183.7 13.5 191 15.8
2009-05-28 11:39:33 51°34.139 3°0.928 228 13.3 226 15
2009-05-28 11:40:33 51°34.007 3°0.647 242.1 13.2 236 14.1
2009-05-28 11:41:32 51°33.888 3°0.359 242.4 13.1 237 12.5
2009-05-28 11:42:33 51°33.765 3°0.065 242.6 13.1 237 13.7
2009-05-28 11:43:33 51°33.647 2°59.773 243.4 13 238 14.2
2009-05-28 11:44:33 51°33.53 2°59.479 243.4 13 237 14.3
2009-05-28 11:45:33 51°33.416 2°59.183 244 13 237 15.4
2009-05-28 11:46:33 51°33.342 2°58.868 265.7 12.4 261 17.9
2009-05-28 11:47:33 51°33.326 2°58.538 276.2 12.5 268 18.1
2009-05-28 11:48:33 51°33.333 2°58.21 284.6 12.3 276 18.4
2009-05-28 11:49:33 51°33.368 2°57.891 294 12 285 22.7
2009-05-28 11:50:33 51°33.446 2°57.604 307.8 11.6 300 22.7
2009-05-28 11:51:33 51°33.544 2°57.337 311.6 11.7 302 22.4
2009-05-28 11:52:33 51°33.645 2°57.071 312.4 11.6 303 26.1
2009-05-28 11:53:33 51°33.752 2°56.808 313.3 11.7 303 27.5
2009-05-28 11:54:33 51°33.86 2°56.547 313.7 11.8 303 28.7
2009-05-28 11:55:33 51°33.967 2°56.284 315.6 11.7 306 29.7
2009-05-28 11:56:33 51°34.081 2°56.031 317.2 11.8 307 30.7
2009-05-28 11:57:33 51°34.197 2°55.777 317.3 11.8 305 30.2
2009-05-28 11:58:33 51°34.261 2°55.471 286.3 12.6 276 31.4
2009-05-28 11:59:33 51°34.241 2°55.127 266.6 13.1 261 29.6
2009-05-28 12:00:33 51°34.193 2°54.784 262 13.1 257 30.6
2009-05-28 12:01:33 51°34.139 2°54.442 259.8 13.2 255 31.3
2009-05-28 12:02:33 51°34.085 2°54.102 260 13.1 255 32.1
2009-05-28 12:03:33 51°34.032 2°53.761 262.5 13.2 258 31.3
2009-05-28 12:04:33 51°33.983 2°53.417 261.2 13.3 256 32.5
2009-05-28 12:05:33 51°33.947 2°53.073 279.7 12.6 275 29.8
2009-05-28 12:06:32 51°34.039 2°52.811 324 11.6 313 31.7
2009-05-28 12:07:33 51°34.18 2°52.594 328.8 11.5 319 34.3
2009-05-28 12:08:33 51°34.325 2°52.389 329.7 11.7 318 34.4
2009-05-28 12:09:32 51°34.469 2°52.186 329.8 11.8 319 36.9
2009-05-28 12:10:32 51°34.616 2°51.975 329.9 11.9 318 37.8
2009-05-28 12:11:33 51°34.765 2°51.757 328.7 11.9 317 37.1
2009-05-28 12:12:33 51°34.91 2°51.54 329.1 11.8 319 35
2009-05-28 12:13:33 51°35.061 2°51.35 329.9 11.4 322 32.4
2009-05-28 12:14:33 51°35.208 2°51.162 330.2 11.3 323 28.5
2009-05-28 12:15:33 51°35.374 2°51.1 2.8 10.3 1 23.2
2009-05-28 12:16:32 51°35.504 2°51.243 48.4 9.4 51 23
2009-05-28 12:17:33 51°35.603 2°51.476 54.6 10.8 57 21.3
2009-05-28 12:18:33 51°35.699 2°51.717 55.7 10.8 57 24.3
2009-05-28 12:19:32 51°35.792 2°51.958 55.2 10.9 58 24.5
2009-05-28 12:20:33 51°35.886 2°52.21 54.7 10.7 57 23.5
2009-05-28 12:21:33 51°35.981 2°52.453 55.2 10.8 58 23.8
2009-05-28 12:22:33 51°36.075 2°52.7 55.9 10.9 61 19.7
2009-05-28 12:23:32 51°36.168 2°52.942 55.1 10.8 56 21.6
2009-05-28 12:24:33 51°36.264 2°53.191 55 10.8 57 22.5
2009-05-28 12:25:33 51°36.361 2°53.435 54.8 10.9 58 22.7
2009-05-28 12:26:33 51°36.455 2°53.682 55.3 10.9 59 22.3
2009-05-28 12:27:32 51°36.546 2°53.926 55.2 10.6 57 18.5
2009-05-28 12:28:33 51°36.674 2°54.123 36.8 10.6 35 22
2009-05-28 12:29:32 51°36.81 2°54.29 37 10.6 35 21.8
2009-05-28 12:30:33 51°36.953 2°54.464 37.1 10.6 38 20.3
2009-05-28 12:31:33 51°37.093 2°54.633 36.5 10.5 35 21.4
2009-05-28 12:32:33 51°37.247 2°54.729 11 10 6 23.8
2009-05-28 12:33:32 51°37.413 2°54.715 354.3 10.3 346 23.1
2009-05-28 12:34:33 51°37.579 2°54.617 342 10.6 336 25.6
2009-05-28 12:35:32 51°37.73 2°54.476 333.7 10.8 326 26.5
2009-05-28 12:36:33 51°37.873 2°54.288 327.8 11 319 29
2009-05-28 12:37:33 51°38.014 2°54.099 328.1 11 321 29
2009-05-28 12:38:33 51°38.154 2°53.907 328.1 11.1 320 31.2
2009-05-28 12:39:33 51°38.296 2°53.717 328.6 11.1 322 31.4
2009-05-28 12:40:33 51°38.44 2°53.53 330.1 11.1 322 28.6
2009-05-28 12:41:33 51°38.583 2°53.342 328.8 11.1 320 34
2009-05-28 12:42:33 51°38.727 2°53.157 329.9 11.2 321 32.6
2009-05-28 12:43:33 51°38.872 2°52.971 329.9 11.2 322 34.4
2009-05-28 12:44:33 51°39.019 2°52.787 330.2 11.1 321 34.8
2009-05-28 12:45:33 51°39.138 2°52.554 312.9 11.5 305 33.2
2009-05-28 12:46:33 51°39.246 2°52.298 312.9 11.6 304 32.1
2009-05-28 12:47:33 51°39.353 2°52.041 313.1 11.5 306 35.1
2009-05-28 12:48:33 51°39.463 2°51.789 313.9 11.4 306 34.6
2009-05-28 12:49:33 51°39.574 2°51.537 313.6 11.6 305 34.6
2009-05-28 12:50:33 51°39.686 2°51.29 314.3 11.4 306 33.2
2009-05-28 12:51:33 51°39.729 2°50.993 277.2 11.9 266 33.9
2009-05-28 12:52:33 51°39.656 2°50.684 248.3 12.7 243 36.3
2009-05-28 12:53:33 51°39.541 2°50.396 236.9 12.9 232 36.8
2009-05-28 12:54:32 51°39.403 2°50.139 228.5 13 224 36.4
2009-05-28 12:55:32 51°39.234 2°49.925 213.3 12.9 211 36.8
2009-05-28 12:56:33 51°39.034 2°49.784 199.1 13 199 36.6
2009-05-28 12:57:33 51°38.826 2°49.675 198.4 13.1 199 37.5
2009-05-28 12:58:32 51°38.626 2°49.554 201.2 13.1 201 38.5
2009-05-28 12:59:33 51°38.425 2°49.416 204.4 12.9 203 39.9
2009-05-28 13:00:32 51°38.227 2°49.283 202.5 13.1 201 38.6
2009-05-28 13:01:33 51°38.024 2°49.135 206.8 13.2 206 38.8
2009-05-28 13:02:32 51°37.829 2°48.989 205.8 13.2 205 38.2
2009-05-28 13:03:33 51°37.627 2°48.834 207.5 13.2 207 38.8
2009-05-28 13:04:33 51°37.43 2°48.679 206.8 13.2 204 39.3
2009-05-28 13:05:33 51°37.233 2°48.525 207.7 13.2 206 40.4
2009-05-28 13:06:33 51°37.035 2°48.373 206 13.1 204 39.8
2009-05-28 13:07:33 51°36.838 2°48.22 206.8 13.1 206 38.5
2009-05-28 13:08:33 51°36.642 2°48.068 204.9 13 205 38.5
2009-05-28 13:09:33 51°36.445 2°47.917 206.2 13.1 205 39
2009-05-28 13:10:33 51°36.248 2°47.769 205.5 13.1 207 38.8
2009-05-28 13:11:32 51°36.056 2°47.623 206.4 13 205 38.1
2009-05-28 13:12:33 51°35.858 2°47.466 207.9 13 207 37.5
2009-05-28 13:13:33 51°35.663 2°47.316 206.9 13 207 37
2009-05-28 13:14:33 51°35.462 2°47.197 191.4 12.8 190 37
2009-05-28 13:15:33 51°35.25 2°47.17 180.7 12.9 182 35.4
2009-05-28 13:16:33 51°35.036 2°47.161 179.3 12.8 182 35.4
2009-05-28 13:17:32 51°34.826 2°47.153 180.5 12.7 181 34.3
2009-05-28 13:18:32 51°34.615 2°47.142 182.5 12.8 183 33.1
2009-05-28 13:19:32 51°34.403 2°47.127 181.8 12.7 184 33.3
2009-05-28 13:20:32 51°34.191 2°47.108 182.7 12.7 183 32.3
2009-05-28 13:21:33 51°33.978 2°47.095 182.4 12.5 185 31.1
2009-05-28 13:22:33 51°33.769 2°47.08 182.3 12.6 180 28.8
2009-05-28 13:23:33 51°33.559 2°47.063 183 12.6 184 33.2
2009-05-28 13:24:33 51°33.351 2°47.046 182.9 12.5 182 33.9
2009-05-28 13:25:33 51°33.144 2°47.032 182.3 12.5 182 34.3
2009-05-28 13:26:33 51°32.937 2°47.024 181.1 12.5 180 32.6
2009-05-28 13:27:33 51°32.732 2°46.998 181.7 12.3 184 34.6
2009-05-28 13:28:33 51°32.528 2°46.967 181.3 12.3 183 30.1
2009-05-28 13:29:33 51°32.324 2°46.949 177 12.3 180 31.7
2009-05-28 13:30:32 51°32.123 2°46.964 172.6 12.3 177 30.8
2009-05-28 13:31:33 51°31.917 2°47 171.4 12.4 173 32.1
2009-05-28 13:32:33 51°31.712 2°47.028 173 12.4 175 31.6
2009-05-28 13:33:32 51°31.51 2°47.061 170.7 12.4 174 30.1
2009-05-28 13:34:33 51°31.302 2°47.099 172.3 12.4 175 28.7
2009-05-28 13:35:33 51°31.097 2°47.135 170.6 12.4 173 29.3
2009-05-28 13:36:33 51°30.893 2°47.178 171.6 12.4 172 29.7
2009-05-28 13:37:33 51°30.688 2°47.221 171.8 12.6 173 28.2
2009-05-28 13:38:33 51°30.483 2°47.259 171.7 12.4 173 28.1
2009-05-28 13:39:33 51°30.278 2°47.298 173.6 12.3 173 25.7
2009-05-28 13:40:33 51°30.073 2°47.339 173.7 12.3 173 24.3
2009-05-28 13:41:33 51°29.87 2°47.379 171.7 12.4 171 26.4
2009-05-28 13:42:32 51°29.669 2°47.426 172.2 12.4 173 26.3
2009-05-28 13:43:32 51°29.463 2°47.469 172.3 12.5 174 24.8
2009-05-28 13:44:33 51°29.255 2°47.504 176.6 12.4 177 28.6
2009-05-28 13:45:33 51°29.05 2°47.521 176.9 12.3 176 28.8
2009-05-28 13:46:33 51°28.847 2°47.545 176.8 12.2 175 28.7
2009-05-28 13:47:33 51°28.644 2°47.566 177.9 12.2 177 29.7
2009-05-28 13:48:33 51°28.443 2°47.585 176.9 12.2 177 32.2
2009-05-28 13:49:33 51°28.245 2°47.602 176.9 11.6 179 33.7
2009-05-28 13:50:33 51°28.053 2°47.618 176.2 11.4 179 33.3
2009-05-28 13:51:33 51°27.862 2°47.63 178 11.5 180 31.8
2009-05-28 13:52:32 51°27.673 2°47.635 178.6 11.5 179 30.9
2009-05-28 13:53:33 51°27.477 2°47.642 176.5 11.5 177 29
2009-05-28 13:54:32 51°27.288 2°47.657 176 11.6 176 27.6
2009-05-28 13:55:33 51°27.093 2°47.673 177.5 11.6 178 28.5
2009-05-28 13:56:32 51°26.904 2°47.685 177.8 11.6 179 28.5
2009-05-28 13:57:33 51°26.706 2°47.705 177.2 11.8 176 25.9
2009-05-28 13:58:33 51°26.513 2°47.729 177.7 11.6 176 25.3
2009-05-28 13:59:33 51°26.318 2°47.749 177.9 11.8 177 22.8
2009-05-28 14:00:32 51°26.124 2°47.771 177.2 11.9 175 24.2
2009-05-28 14:01:33 51°25.924 2°47.795 176.4 11.9 175 24.4
2009-05-28 14:02:32 51°25.731 2°47.824 175.5 11.9 173 25.7
2009-05-28 14:03:33 51°25.538 2°47.85 177.4 11.4 175 26.3
2009-05-28 14:04:33 51°25.343 2°47.883 170.7 11.7 166 29.2
2009-05-28 14:05:33 51°25.162 2°47.987 157.3 11.5 156 31.1
2009-05-28 14:06:33 51°24.986 2°48.11 159.5 11.6 158 31.7
2009-05-28 14:07:33 51°24.805 2°48.224 160.7 11.6 157 28.1
2009-05-28 14:08:33 51°24.626 2°48.346 159.6 11.7 157 26.1
2009-05-28 14:09:33 51°24.446 2°48.472 159.5 11.7 159 25.5
2009-05-28 14:10:33 51°24.265 2°48.598 159.3 11.8 157 24.8
2009-05-28 14:11:32 51°24.087 2°48.716 159.8 11.9 156 21.8
2009-05-28 14:12:33 51°23.904 2°48.845 160 11.8 158 24.6
2009-05-28 14:13:33 51°23.723 2°48.966 162 11.9 156 25.3
2009-05-28 14:14:33 51°23.54 2°49.086 159.8 11.9 156 24.6
2009-05-28 14:15:33 51°23.358 2°49.211 161.1 11.9 159 21.9
2009-05-28 14:16:32 51°23.177 2°49.325 161.8 12 158 21.8
2009-05-28 14:17:33 51°22.992 2°49.453 159.7 12 155 18.5
2009-05-28 14:18:33 51°22.811 2°49.583 159.7 11.9 156 17.8
2009-05-28 14:19:32 51°22.633 2°49.709 158.7 12 156 21.8
2009-05-28 14:20:33 51°22.452 2°49.844 159.7 11.7 155 24.7
2009-05-28 14:21:32 51°22.278 2°49.971 159.8 11.7 156 25.6
2009-05-28 14:22:33 51°22.097 2°50.098 160.9 11.7 156 26
2009-05-28 14:23:33 51°21.919 2°50.224 161.3 11.7 157 25.2
2009-05-28 14:24:33 51°21.742 2°50.338 163.1 11.2 158 25.3
2009-05-28 14:25:33 51°21.569 2°50.447 163.7 11.2 159 25.5
2009-05-28 14:26:33 51°21.396 2°50.556 163.8 11.1 157 26
2009-05-28 14:27:33 51°21.223 2°50.667 163.4 11.2 156 26.1
2009-05-28 14:28:32 51°21.054 2°50.784 163.1 11.2 158 25.2
2009-05-28 14:29:33 51°20.877 2°50.892 167 11.2 160 23
2009-05-28 14:30:33 51°20.701 2°50.997 166.9 11.4 158 20.4
2009-05-28 14:31:32 51°20.528 2°51.104 165.9 11.4 159 19.1
2009-05-28 14:32:33 51°20.349 2°51.214 167.3 11.3 159 17.8
2009-05-28 14:33:33 51°20.172 2°51.312 170 11.3 160 15.3
2009-05-28 14:34:33 51°19.993 2°51.4 170.8 11.3 164 16.4
2009-05-28 14:35:33 51°19.813 2°51.484 171.8 11.2 164 17.4
2009-05-28 14:36:33 51°19.633 2°51.565 172.8 11.2 167 18
2009-05-28 14:37:33 51°19.455 2°51.645 171.1 11 164 18.4
2009-05-28 14:38:33 51°19.275 2°51.724 172.4 11.2 165 18.2
2009-05-28 14:39:33 51°19.094 2°51.805 172 11.2 166 17.7
2009-05-28 14:40:33 51°18.915 2°51.884 171.9 11 166 16.8
2009-05-28 14:41:33 51°18.734 2°51.943 176.9 11.1 170 15.9
2009-05-28 14:42:33 51°18.552 2°51.992 176.9 11.1 170 15
2009-05-28 14:43:33 51°18.372 2°52.044 175.6 11 167 14.3
2009-05-28 14:44:33 51°18.192 2°52.101 174.3 11.1 168 14.3
2009-05-28 14:45:33 51°18.013 2°52.158 175.6 11 169 13.8
2009-05-28 14:46:33 51°17.834 2°52.212 174.3 11 167 13.3
2009-05-28 14:47:33 51°17.656 2°52.274 174.4 10.9 166 13.1
2009-05-28 14:48:32 51°17.483 2°52.358 169.7 11 160 13.2
2009-05-28 14:49:33 51°17.305 2°52.461 167.7 11.2 160 13.2
2009-05-28 14:50:33 51°17.132 2°52.574 165.3 11.2 157 12.7
2009-05-28 14:51:33 51°16.96 2°52.691 165.3 11.1 156 12.8
2009-05-28 14:52:33 51°16.788 2°52.809 164.7 11.4 156 12.5
2009-05-28 14:53:33 51°16.614 2°52.93 166.5 11.5 159 14.3
2009-05-28 14:54:33 51°16.437 2°53.04 168.5 11.3 161 14.8
2009-05-28 14:55:32 51°16.265 2°53.152 168.6 11.3 157 14.8
2009-05-28 14:56:32 51°16.092 2°53.264 167.5 11.2 157 14.6
2009-05-28 14:57:33 51°15.917 2°53.367 169 10.9 162 14.5
2009-05-28 14:58:33 51°15.744 2°53.463 169.5 11 161 14.2
2009-05-28 14:59:33 51°15.57 2°53.557 171.2 11 159 13.7
2009-05-28 15:00:32 51°15.4 2°53.649 169.9 11 161 13.2
2009-05-28 15:01:33 51°15.223 2°53.737 171.5 11 162 12.6
2009-05-28 15:02:33 51°15.048 2°53.821 171.3 10.8 163 12.6
2009-05-28 15:03:33 51°14.876 2°53.925 157.3 11.4 149 12.5
2009-05-28 15:04:33 51°14.756 2°54.174 128.6 12.6 117 13.1
2009-05-28 15:05:33 51°14.646 2°54.451 132.9 12.3 125 13.1
2009-05-28 15:06:34 51°14.523 2°54.718 131.2 12.4 122 13.3
2009-05-28 15:07:33 51°14.407 2°54.987 136 12.4 128 13.1
2009-05-28 15:08:32 51°14.297 2°55.18 128 7.1 127 13.3
2009-05-28 15:09:33 51°14.239 2°55.295 135.5 4.6 134 13.4
2009-05-28 15:10:33 51°14.183 2°55.37 149 4.3 149 13.3
2009-05-28 15:11:32 51°14.113 2°55.423 157.5 5.2 157 13.3
2009-05-28 15:12:33 51°14.007 2°55.495 157.6 7.7 157 13.3
2009-05-28 15:13:33 51°13.889 2°55.578 155.4 7.1 157 13.1
2009-05-28 15:14:33 51°13.792 2°55.656 152.9 5.9 150 13.2
2009-05-28 15:15:33 51°13.731 2°55.758 127.5 5.1 128 14.3
2009-05-28 15:16:33 51°13.686 2°55.854 120.7 3.9 119 11.4